createdAt,value
2018-10-09T00:01:09.464Z,36.37
2018-10-09T00:03:38.088Z,36.77
2018-10-09T00:06:06.748Z,35.63
2018-10-09T00:08:35.308Z,34.33
2018-10-09T00:11:04.393Z,39.00
2018-10-09T00:13:32.716Z,41.43
2018-10-09T00:16:01.064Z,46.17
2018-10-09T00:18:29.456Z,45.60
2018-10-09T00:20:57.956Z,40.00
2018-10-09T00:23:26.384Z,47.50
2018-10-09T00:25:54.856Z,43.23
2018-10-09T00:28:23.868Z,36.23
2018-10-09T00:30:52.241Z,27.87
2018-10-09T00:33:21.728Z,26.07
2018-10-09T00:35:50.224Z,25.23
2018-10-09T00:38:18.636Z,22.07
2018-10-09T00:40:47.009Z,25.90
2018-10-09T00:43:15.347Z,29.60
2018-10-09T00:45:44.816Z,30.93
2018-10-09T00:48:13.184Z,32.37
2018-10-09T00:50:41.608Z,32.37
2018-10-09T00:53:10.085Z,35.40
2018-10-09T00:55:38.530Z,34.13
2018-10-09T00:58:07.116Z,32.50
2018-10-09T01:00:35.550Z,33.80
2018-10-09T01:03:04.049Z,37.53
2018-10-09T01:05:32.372Z,36.57
2018-10-09T01:08:00.785Z,34.83
2018-10-09T01:10:29.577Z,35.70
2018-10-09T01:12:57.944Z,35.23
2018-10-09T01:15:26.328Z,33.00
2018-10-09T01:17:55.012Z,32.80
2018-10-09T01:20:32.295Z,30.43
2018-10-09T01:23:02.127Z,34.23
2018-10-09T01:25:30.615Z,32.83
2018-10-09T01:27:59.211Z,39.03
2018-10-09T01:30:29.162Z,40.70
2018-10-09T01:32:57.713Z,44.73
2018-10-09T01:35:26.198Z,43.80
2018-10-09T01:37:55.399Z,41.40
2018-10-09T01:40:23.885Z,44.17
2018-10-09T01:42:52.276Z,47.20
2018-10-09T01:45:20.719Z,44.57
2018-10-09T01:47:49.208Z,42.83
2018-10-09T01:50:17.659Z,48.07
2018-10-09T01:52:46.195Z,41.50
2018-10-09T01:55:14.589Z,44.17
2018-10-09T01:57:42.994Z,46.07
2018-10-09T02:00:12.067Z,42.43
2018-10-09T02:02:40.700Z,39.73
2018-10-09T02:05:09.382Z,36.73
2018-10-09T02:07:37.816Z,38.30
2018-10-09T02:10:06.210Z,37.23
2018-10-09T02:12:34.804Z,37.87
2018-10-09T02:15:03.756Z,40.97
2018-10-09T02:17:32.352Z,38.43
2018-10-09T02:20:00.982Z,42.80
2018-10-09T02:22:29.302Z,39.87
2018-10-09T02:24:57.598Z,40.07
2018-10-09T02:27:26.242Z,47.83
2018-10-09T02:29:54.736Z,43.83
2018-10-09T02:32:23.175Z,44.03
2018-10-09T02:34:51.630Z,43.73
2018-10-09T02:37:20.124Z,43.07
2018-10-09T02:39:48.573Z,42.03
2018-10-09T02:42:16.924Z,45.07
2018-10-09T02:44:45.446Z,46.77
2018-10-09T02:47:13.784Z,42.33
2018-10-09T02:49:42.174Z,40.33
2018-10-09T02:52:10.606Z,40.93
2018-10-09T02:54:38.968Z,41.20
2018-10-09T02:57:07.318Z,43.73
2018-10-09T02:59:35.910Z,48.20
2018-10-09T03:02:04.246Z,47.97
2018-10-09T03:04:32.542Z,51.50
2018-10-09T03:07:01.176Z,48.67
2018-10-09T03:09:29.523Z,49.63
2018-10-09T03:11:57.945Z,45.13
2018-10-09T03:14:26.639Z,44.70
2018-10-09T03:16:54.938Z,42.97
2018-10-09T03:19:23.271Z,39.80
2018-10-09T03:21:51.630Z,38.33
2018-10-09T03:24:19.998Z,48.40
2018-10-09T03:26:48.462Z,49.20
2018-10-09T03:29:16.875Z,45.17
2018-10-09T03:31:45.166Z,48.43
2018-10-09T03:34:13.990Z,47.63
2018-10-09T03:36:42.706Z,43.63
2018-10-09T03:39:11.178Z,42.63
2018-10-09T03:41:39.724Z,47.43
2018-10-09T03:44:08.912Z,40.67
2018-10-09T03:46:37.431Z,42.87
2018-10-09T03:49:06.369Z,45.70
2018-10-09T03:51:34.738Z,46.37
2018-10-09T03:54:03.102Z,40.83
2018-10-09T03:56:31.533Z,42.17
2018-10-09T03:59:00.819Z,43.10
2018-10-09T04:01:29.153Z,48.53
2018-10-09T04:03:58.112Z,42.00
2018-10-09T04:06:26.718Z,53.60
2018-10-09T04:08:55.183Z,40.07
2018-10-09T04:11:23.582Z,44.20
2018-10-09T04:13:52.330Z,43.30
2018-10-09T04:16:20.714Z,38.20
2018-10-09T04:18:49.377Z,35.77
2018-10-09T04:21:17.728Z,43.07
2018-10-09T04:23:46.214Z,45.70
2018-10-09T04:26:14.558Z,42.60
2018-10-09T04:28:43.153Z,45.83
2018-10-09T04:31:11.578Z,40.17
2018-10-09T04:33:40.270Z,36.33
2018-10-09T04:36:08.802Z,36.37
2018-10-09T04:38:37.347Z,32.57
2018-10-09T04:41:05.658Z,35.00
2018-10-09T04:43:34.050Z,31.03
2018-10-09T04:46:02.415Z,38.97
2018-10-09T04:48:30.902Z,39.77
2018-10-09T04:50:59.317Z,34.50
2018-10-09T04:53:27.858Z,32.73
2018-10-09T04:55:56.286Z,29.63
2018-10-09T04:58:24.651Z,28.57
2018-10-09T05:00:55.310Z,25.07
2018-10-09T05:03:23.593Z,28.97
2018-10-09T05:05:52.123Z,38.47
2018-10-09T05:08:20.474Z,32.80
2018-10-09T05:10:48.922Z,35.97
2018-10-09T05:13:17.446Z,41.13
2018-10-09T05:15:46.626Z,42.40
2018-10-09T05:18:15.006Z,59.47
2018-10-09T05:20:43.331Z,48.37
2018-10-09T05:23:11.654Z,47.27
2018-10-09T05:25:40.730Z,36.00
2018-10-09T05:28:09.506Z,36.57
2018-10-09T05:30:38.029Z,20.00
2018-10-09T05:33:06.906Z,19.07
2018-10-09T05:35:35.326Z,15.80
2018-10-09T05:38:03.713Z,14.50
2018-10-09T05:40:32.062Z,13.90
2018-10-09T05:43:00.506Z,11.50
2018-10-09T05:45:28.957Z,13.13
2018-10-09T05:47:57.296Z,11.77
2018-10-09T05:50:25.594Z,11.40
2018-10-09T05:52:53.954Z,10.57
2018-10-09T05:55:22.326Z,11.53
2018-10-09T05:57:50.851Z,12.33
2018-10-09T06:00:19.210Z,12.13
2018-10-09T06:02:47.810Z,10.83
2018-10-09T06:05:16.142Z,10.50
2018-10-09T06:07:44.521Z,11.90
2018-10-09T06:10:12.906Z,13.00
2018-10-09T06:12:43.710Z,12.03
2018-10-09T06:15:12.018Z,11.27
2018-10-09T06:17:40.778Z,13.67
2018-10-09T06:20:09.206Z,10.73
2018-10-09T06:22:37.630Z,10.70
2018-10-09T06:25:06.578Z,11.00
2018-10-09T06:27:35.078Z,10.63
2018-10-09T06:30:03.492Z,12.67
2018-10-09T06:32:31.902Z,13.37
2018-10-09T06:35:00.522Z,10.27
2018-10-09T06:37:28.810Z,12.23
2018-10-09T06:39:57.134Z,10.23
2018-10-09T06:42:26.210Z,11.50
2018-10-09T06:44:54.524Z,9.90
2018-10-09T06:47:22.980Z,10.10
2018-10-09T06:49:51.278Z,9.50
2018-10-09T06:52:19.654Z,10.93
2018-10-09T06:54:48.100Z,10.30
2018-10-09T06:57:16.326Z,9.73
2018-10-09T06:59:44.667Z,10.27
2018-10-09T07:02:13.054Z,10.23
2018-10-09T07:04:41.575Z,8.90
2018-10-09T07:07:09.881Z,10.17
2018-10-09T07:09:38.199Z,9.03
2018-10-09T07:12:06.810Z,8.87
2018-10-09T07:14:35.146Z,11.20
2018-10-09T07:17:03.705Z,11.40
2018-10-09T07:19:32.201Z,8.97
2018-10-09T07:22:00.587Z,8.90
2018-10-09T07:24:29.285Z,8.00
2018-10-09T07:26:58.518Z,8.57
2018-10-09T07:29:26.854Z,7.83
2018-10-09T07:31:55.278Z,8.60
2018-10-09T07:34:23.607Z,11.00
2018-10-09T07:36:52.394Z,8.63
2018-10-09T07:39:20.774Z,8.40
2018-10-09T07:41:49.475Z,9.23
2018-10-09T07:44:17.942Z,9.10
2018-10-09T07:46:46.259Z,7.60
2018-10-09T07:49:14.579Z,8.00
2018-10-09T07:51:43.042Z,8.63
2018-10-09T07:54:11.326Z,8.57
2018-10-09T07:56:39.917Z,7.27
2018-10-09T07:59:08.317Z,9.37
2018-10-09T08:01:36.685Z,6.73
2018-10-09T08:04:05.236Z,9.07
2018-10-09T08:06:33.629Z,6.70
2018-10-09T08:09:02.220Z,7.10
2018-10-09T08:11:30.666Z,6.40
2018-10-09T08:13:58.903Z,5.80
2018-10-09T08:16:27.388Z,6.10
2018-10-09T08:18:55.666Z,6.80
2018-10-09T08:21:24.034Z,6.83
2018-10-09T08:23:52.478Z,8.43
2018-10-09T08:26:20.806Z,8.40
2018-10-09T08:28:49.302Z,8.47
2018-10-09T08:31:17.650Z,6.77
2018-10-09T08:33:46.197Z,8.93
2018-10-09T08:36:14.726Z,8.43
2018-10-09T08:38:43.010Z,9.53
2018-10-09T08:41:11.604Z,9.87
2018-10-09T08:43:40.240Z,9.13
2018-10-09T08:46:09.265Z,10.17
2018-10-09T08:48:37.646Z,8.37
2018-10-09T08:51:06.020Z,7.73
2018-10-09T08:53:34.558Z,12.07
2018-10-09T08:56:02.906Z,8.97
2018-10-09T08:58:31.175Z,8.57
2018-10-09T09:00:59.754Z,8.37
2018-10-09T09:03:28.260Z,7.57
2018-10-09T09:05:56.687Z,8.43
2018-10-09T09:08:24.956Z,9.10
2018-10-09T09:10:53.363Z,22.87
2018-10-09T09:13:21.732Z,23.67
2018-10-09T09:15:50.098Z,28.20
2018-10-09T09:18:18.577Z,18.40
2018-10-09T09:20:47.193Z,22.43
2018-10-09T09:23:15.509Z,55.90
2018-10-09T09:25:44.501Z,31.30
2018-10-09T09:28:13.147Z,28.13
2018-10-09T09:30:41.775Z,19.77
2018-10-09T09:33:10.288Z,14.93
2018-10-09T09:35:38.585Z,20.90
2018-10-09T09:38:07.155Z,28.80
2018-10-09T09:40:35.646Z,18.53
2018-10-09T09:43:04.069Z,25.40
2018-10-09T09:45:32.387Z,25.63
2018-10-09T09:48:00.804Z,22.20
2018-10-09T09:50:29.427Z,21.67
2018-10-09T09:52:57.827Z,19.87
2018-10-09T09:55:26.246Z,24.40
2018-10-09T09:57:54.660Z,24.80
2018-10-09T10:00:28.508Z,19.33
2018-10-09T10:02:56.889Z,22.03
2018-10-09T10:05:25.249Z,21.60
2018-10-09T10:07:53.635Z,24.03
2018-10-09T10:10:22.003Z,22.13
2018-10-09T10:12:50.501Z,19.87
2018-10-09T10:15:18.961Z,19.53
2018-10-09T10:17:47.243Z,21.70
2018-10-09T10:20:16.593Z,16.63
2018-10-09T10:22:44.913Z,17.57
2018-10-09T10:25:13.306Z,16.00
2018-10-09T10:27:41.622Z,15.97
2018-10-09T10:30:10.578Z,15.93
2018-10-09T10:32:38.948Z,18.03
2018-10-09T10:35:08.461Z,15.33
2018-10-09T10:37:36.862Z,12.07
2018-10-09T10:40:05.437Z,12.67
2018-10-09T10:42:33.801Z,11.80
2018-10-09T10:45:02.108Z,9.43
2018-10-09T10:47:30.443Z,9.83
2018-10-09T10:49:58.829Z,12.30
2018-10-09T10:52:27.239Z,10.17
2018-10-09T10:54:55.607Z,10.67
2018-10-09T10:57:23.946Z,7.67
2018-10-09T10:59:52.543Z,9.80
2018-10-09T11:02:21.009Z,8.13
2018-10-09T11:04:49.620Z,8.53
2018-10-09T11:07:18.005Z,8.50
2018-10-09T11:09:46.288Z,9.47
2018-10-09T11:12:15.112Z,9.07
2018-10-09T11:14:45.518Z,17.97
2018-10-09T11:17:13.850Z,9.73
2018-10-09T11:19:42.353Z,8.23
2018-10-09T11:22:11.967Z,17.13
2018-10-09T11:24:40.442Z,9.00
2018-10-09T11:27:08.934Z,16.97
2018-10-09T11:29:38.258Z,8.03
2018-10-09T11:32:07.791Z,13.57
2018-10-09T11:34:37.154Z,9.33
2018-10-09T11:37:05.969Z,12.83
2018-10-09T11:39:36.794Z,10.07
2018-10-09T11:42:06.789Z,7.97
2018-10-09T11:44:35.248Z,10.00
2018-10-09T11:47:03.630Z,10.67
2018-10-09T11:49:32.112Z,14.07
2018-10-09T11:52:00.908Z,12.97
2018-10-09T11:54:29.906Z,11.37
2018-10-09T11:56:58.254Z,12.83
2018-10-09T11:59:27.451Z,17.53
2018-10-09T12:01:56.555Z,11.07
2018-10-09T12:04:25.144Z,10.53
2018-10-09T12:06:53.526Z,11.00
2018-10-09T12:09:21.872Z,10.97
2018-10-09T12:11:50.416Z,17.00
2018-10-09T12:14:18.592Z,16.03
2018-10-09T12:16:46.920Z,11.10
2018-10-09T12:19:15.334Z,13.07
2018-10-09T12:21:43.691Z,16.07
2018-10-09T12:24:12.018Z,12.27
2018-10-09T12:26:42.407Z,11.33
2018-10-09T12:29:10.903Z,10.63
2018-10-09T12:31:39.534Z,13.60
2018-10-09T12:34:08.157Z,21.70
2018-10-09T12:36:37.435Z,14.93
2018-10-09T12:39:09.411Z,14.23
2018-10-09T12:41:37.749Z,13.27
2018-10-09T12:44:06.222Z,14.87
2018-10-09T12:46:35.291Z,19.17
2018-10-09T12:49:03.849Z,17.07
2018-10-09T12:51:32.230Z,20.30
2018-10-09T12:54:00.978Z,20.87
2018-10-09T12:56:29.395Z,18.37
2018-10-09T12:58:58.272Z,17.80
2018-10-09T13:01:26.551Z,18.17
2018-10-09T13:03:54.915Z,20.13
2018-10-09T13:06:23.391Z,31.33
2018-10-09T13:08:51.779Z,34.70
2018-10-09T13:11:20.087Z,21.50
2018-10-09T13:13:48.390Z,17.73
2018-10-09T13:16:16.877Z,18.43
2018-10-09T13:18:45.281Z,17.90
2018-10-09T13:21:13.757Z,19.33
2018-10-09T13:23:41.930Z,19.83
2018-10-09T13:26:10.336Z,15.90
2018-10-09T13:28:38.913Z,15.57
2018-10-09T13:31:07.394Z,15.30
2018-10-09T13:33:35.682Z,19.37
2018-10-09T13:36:04.144Z,18.10
2018-10-09T13:38:32.517Z,15.93
2018-10-09T13:41:01.339Z,20.70
2018-10-09T13:43:29.734Z,19.37
2018-10-09T13:45:58.501Z,15.53
2018-10-09T13:48:27.021Z,15.97
2018-10-09T13:50:55.377Z,16.03
2018-10-09T13:53:23.650Z,18.23
2018-10-09T13:55:52.114Z,16.80
2018-10-09T13:58:23.319Z,16.43
2018-10-09T14:00:51.814Z,13.73
2018-10-09T14:03:20.194Z,14.07
2018-10-09T14:05:49.326Z,14.27
2018-10-09T14:08:19.189Z,11.87
2018-10-09T14:10:47.866Z,14.57
2018-10-09T14:13:17.315Z,13.63
2018-10-09T14:15:45.943Z,13.03
2018-10-09T14:18:31.688Z,15.27
2018-10-09T14:21:00.208Z,20.77
2018-10-09T14:23:28.494Z,15.27
2018-10-09T14:25:58.562Z,12.53
2018-10-09T14:28:28.004Z,11.87
2018-10-09T14:30:56.398Z,12.07
2018-10-09T14:33:24.934Z,12.53
2018-10-09T14:35:53.346Z,10.73
2018-10-09T14:38:21.786Z,11.83
2018-10-09T14:40:50.223Z,12.83
2018-10-09T14:43:18.606Z,9.87
2018-10-09T14:45:47.139Z,11.70
2018-10-09T14:48:15.422Z,13.97
2018-10-09T14:50:43.750Z,11.60
2018-10-09T14:53:23.478Z,12.17
2018-10-09T14:55:51.976Z,11.10
2018-10-09T14:58:20.412Z,13.13
2018-10-09T15:00:48.701Z,15.23
2018-10-09T15:03:17.276Z,20.50
2018-10-09T15:05:45.568Z,15.90
2018-10-09T15:08:14.043Z,10.67
2018-10-09T15:10:42.775Z,12.80
2018-10-09T15:13:11.219Z,14.43
2018-10-09T15:15:39.647Z,13.47
2018-10-09T15:18:08.025Z,10.57
2018-10-09T15:20:36.318Z,11.63
2018-10-09T15:23:04.690Z,11.17
2018-10-09T15:25:33.058Z,11.17
2018-10-09T15:28:01.544Z,19.10
2018-10-09T15:30:29.904Z,12.03
2018-10-09T15:32:58.858Z,12.70
2018-10-09T15:35:27.257Z,11.97
2018-10-09T15:37:55.658Z,12.53
2018-10-09T15:40:23.989Z,12.93
2018-10-09T15:42:52.496Z,11.73
2018-10-09T15:45:20.892Z,13.20
2018-10-09T15:47:49.519Z,12.40
2018-10-09T15:50:17.890Z,15.07
2018-10-09T15:52:46.293Z,15.53
2018-10-09T15:55:14.755Z,11.83
2018-10-09T15:57:43.071Z,12.73
2018-10-09T16:00:11.572Z,14.03
2018-10-09T16:02:40.146Z,12.23
2018-10-09T16:05:08.641Z,16.23
2018-10-09T16:07:37.072Z,15.80
2018-10-09T16:10:05.672Z,11.30
2018-10-09T16:12:34.070Z,15.67
2018-10-09T16:15:02.455Z,12.70
2018-10-09T16:17:30.771Z,12.17
2018-10-09T16:19:59.129Z,12.30
2018-10-09T16:22:27.581Z,13.30
2018-10-09T16:24:55.992Z,12.67
2018-10-09T16:27:24.347Z,13.77
2018-10-09T16:29:52.810Z,19.87
2018-10-09T16:32:21.301Z,20.33
2018-10-09T16:34:49.679Z,25.77
2018-10-09T16:37:18.017Z,24.20
2018-10-09T16:39:46.354Z,26.73
2018-10-09T16:42:14.699Z,27.10
2018-10-09T16:44:43.215Z,23.70
2018-10-09T16:47:11.774Z,29.97
2018-10-09T16:49:40.229Z,34.80
2018-10-09T16:52:08.750Z,29.60
2018-10-09T16:54:37.213Z,25.83
2018-10-09T16:57:05.657Z,32.13
2018-10-09T16:59:33.995Z,30.10
2018-10-09T17:02:02.461Z,30.90
2018-10-09T17:04:30.925Z,25.60
2018-10-09T17:06:59.357Z,26.87
2018-10-09T17:09:27.753Z,32.97
2018-10-09T17:11:56.478Z,34.07
2018-10-09T17:14:24.868Z,34.43
2018-10-09T17:16:53.286Z,34.23
2018-10-09T17:19:21.639Z,32.80
2018-10-09T17:21:49.939Z,33.80
2018-10-09T17:24:18.313Z,34.03
2018-10-09T17:26:46.681Z,35.40
2018-10-09T17:29:15.031Z,33.80
2018-10-09T17:31:43.692Z,32.53
2018-10-09T17:34:12.114Z,37.77
2018-10-09T17:36:40.854Z,34.70
2018-10-09T17:39:10.768Z,35.50
2018-10-09T17:41:39.502Z,34.13
2018-10-09T17:44:08.346Z,33.03
2018-10-09T17:46:37.190Z,36.37
2018-10-09T17:49:05.561Z,34.63
2018-10-09T17:51:33.951Z,34.27
2018-10-09T17:54:02.345Z,34.10
2018-10-09T17:56:31.362Z,34.50
2018-10-09T17:58:59.908Z,38.17
2018-10-09T18:01:28.252Z,37.77
2018-10-09T18:03:57.765Z,36.73
2018-10-09T18:06:26.426Z,38.07
2018-10-09T18:08:55.177Z,37.60
2018-10-09T18:11:23.365Z,36.37
2018-10-09T18:13:52.045Z,34.87
2018-10-09T18:16:20.779Z,34.13
2018-10-09T18:18:49.149Z,35.30
2018-10-09T18:21:17.534Z,34.73
2018-10-09T18:23:45.958Z,30.33
2018-10-09T18:26:14.786Z,35.03
2018-10-09T18:28:43.081Z,31.73
2018-10-09T18:31:12.100Z,36.30
2018-10-09T18:33:40.571Z,35.70
2018-10-09T18:36:09.007Z,33.70
2018-10-09T18:38:37.358Z,29.80
2018-10-09T18:41:05.736Z,27.80
2018-10-09T18:43:34.162Z,34.70
2018-10-09T18:46:02.695Z,30.87
2018-10-09T18:48:31.019Z,31.93
2018-10-09T18:50:59.505Z,27.90
2018-10-09T18:53:28.198Z,34.33
2018-10-09T18:55:56.588Z,30.50
2018-10-09T18:58:24.945Z,32.97
2018-10-09T19:00:53.278Z,32.83
2018-10-09T19:03:21.570Z,33.33
2018-10-09T19:05:49.986Z,34.60
2018-10-09T19:08:18.402Z,34.47
2018-10-09T19:10:46.699Z,34.30
2018-10-09T19:13:15.029Z,30.57
2018-10-09T19:15:43.425Z,33.97
2018-10-09T19:18:12.061Z,28.33
2018-10-09T19:20:40.724Z,30.07
2018-10-09T19:23:09.221Z,28.93
2018-10-09T19:25:38.815Z,29.50
2018-10-09T19:28:08.023Z,32.83
2018-10-09T19:30:36.506Z,31.13
2018-10-09T19:33:05.112Z,30.90
2018-10-09T19:35:33.883Z,33.73
2018-10-09T19:38:02.224Z,30.73
2018-10-09T19:40:30.697Z,28.50
2018-10-09T19:42:59.038Z,34.43
2018-10-09T19:45:27.450Z,34.03
2018-10-09T19:47:55.799Z,33.47
2018-10-09T19:50:24.352Z,33.87
2018-10-09T19:52:53.062Z,31.30
2018-10-09T19:55:22.279Z,33.57
2018-10-09T19:57:50.727Z,35.60
2018-10-09T20:00:19.138Z,35.47
2018-10-09T20:02:47.423Z,30.73
2018-10-09T20:05:16.906Z,36.00
2018-10-09T20:07:45.425Z,42.20
2018-10-09T20:10:13.847Z,36.47
2018-10-09T20:12:42.321Z,34.77
2018-10-09T20:15:10.651Z,34.43
2018-10-09T20:17:39.193Z,35.63
2018-10-09T20:20:07.527Z,36.07
2018-10-09T20:22:36.053Z,34.60
2018-10-09T20:25:04.633Z,35.93
2018-10-09T20:27:33.072Z,34.77
2018-10-09T20:30:01.430Z,35.77
2018-10-09T20:32:29.769Z,34.87
2018-10-09T20:34:58.547Z,34.67
2018-10-09T20:37:27.223Z,33.23
2018-10-09T20:39:56.056Z,36.73
2018-10-09T20:42:24.759Z,34.60
2018-10-09T20:44:53.441Z,36.50
2018-10-09T20:47:27.011Z,33.10
2018-10-09T20:49:55.430Z,35.03
2018-10-09T20:52:23.750Z,32.03
2018-10-09T20:54:53.504Z,33.60
2018-10-09T20:57:22.188Z,32.57
2018-10-09T20:59:50.534Z,30.87
2018-10-09T21:02:18.930Z,36.60
2018-10-09T21:04:47.338Z,37.03
2018-10-09T21:07:15.715Z,31.87
2018-10-09T21:09:44.114Z,36.87
2018-10-09T21:12:12.766Z,37.27
2018-10-09T21:14:41.206Z,35.67
2018-10-09T21:17:09.612Z,36.97
2018-10-09T21:19:38.100Z,36.03
2018-10-09T21:22:06.472Z,37.53
2018-10-09T21:24:34.840Z,38.07
2018-10-09T21:27:03.310Z,37.27
2018-10-09T21:29:31.705Z,37.93
2018-10-09T21:32:00.078Z,39.53
2018-10-09T21:34:28.378Z,38.40
2018-10-09T21:36:56.856Z,39.07
2018-10-09T21:39:25.333Z,34.80
2018-10-09T21:41:53.801Z,43.33
2018-10-09T21:44:22.170Z,40.37
2018-10-09T21:46:50.650Z,42.30
2018-10-09T21:49:19.052Z,39.97
2018-10-09T21:51:47.398Z,41.13
2018-10-09T21:54:15.687Z,38.00
2018-10-09T21:56:44.009Z,37.13
2018-10-09T21:59:12.491Z,39.23
2018-10-09T22:01:40.823Z,34.40
2018-10-09T22:04:09.346Z,40.97
2018-10-09T22:06:37.675Z,36.10
2018-10-09T22:09:07.830Z,41.87
2018-10-09T22:11:36.190Z,36.20
2018-10-09T22:14:04.838Z,36.43
2018-10-09T22:16:33.270Z,37.00
2018-10-09T22:19:01.778Z,38.67
2018-10-09T22:21:30.210Z,39.30
2018-10-09T22:23:58.548Z,39.37
2018-10-09T22:26:26.905Z,38.53
2018-10-09T22:28:55.257Z,37.83
2018-10-09T22:31:23.542Z,37.20
2018-10-09T22:33:51.933Z,37.10
2018-10-09T22:36:20.275Z,35.90
2018-10-09T22:38:48.727Z,35.77
2018-10-09T22:41:17.542Z,39.63
2018-10-09T22:43:45.932Z,37.73
2018-10-09T22:46:14.209Z,39.40
2018-10-09T22:48:42.585Z,34.50
2018-10-09T22:51:10.942Z,36.20
2018-10-09T22:53:39.345Z,36.50
2018-10-09T22:56:07.734Z,37.30
2018-10-09T22:58:36.284Z,35.13
2018-10-09T23:01:04.654Z,36.60
2018-10-09T23:03:32.992Z,36.73
2018-10-09T23:06:01.338Z,36.40
2018-10-09T23:08:29.846Z,38.23
2018-10-09T23:10:58.598Z,40.30
2018-10-09T23:13:26.954Z,40.47
2018-10-09T23:15:55.330Z,34.73
2018-10-09T23:18:23.991Z,37.30
2018-10-09T23:20:52.306Z,36.50
2018-10-09T23:23:20.678Z,36.50
2018-10-09T23:25:49.130Z,36.67
2018-10-09T23:28:17.463Z,39.20
2018-10-09T23:30:45.739Z,36.37
2018-10-09T23:33:14.415Z,36.40
2018-10-09T23:35:42.852Z,40.40
2018-10-09T23:38:11.276Z,37.33
2018-10-09T23:40:39.803Z,36.33
2018-10-09T23:43:08.261Z,38.40
2018-10-09T23:45:37.215Z,35.30
2018-10-09T23:48:08.254Z,37.30
2018-10-09T23:50:39.031Z,39.33
2018-10-09T23:53:07.703Z,40.33
2018-10-09T23:55:36.903Z,38.03
2018-10-09T23:58:05.537Z,41.37
